Mount Tom, Massachusetts
Current Conditions -  °F | °C
As of 6:53 PM on Friday 19 Dec 2014 (Local Time) from KBAF Reporting Station
Scattered Clouds Scattered Clouds  
Wind Chill: 21°   Ceiling: Unl
Heat Index: 30°   Visibility: 10mi
Dew Point: 20°   Wind: 12mph
Humidity: 66%   Direction: 320°NW
Pressure: 30.09"   Gusts: NA
Location:  42.2952°N, 72.7431°W
Report Text: KBAF 192353Z 32010KT 10SM SCT035 M01/M07 A3009 RMK AO2 SLP195 T10111067 10011 21011 51019
Loading
Personal Weather Stations






























Interactive Weather Map New forecast layout! Learn more

10-Day Weather Forecast

Advertisements
Track Severe Weather on mobile